createdAt,value
2019-01-05T00:01:28.688Z,4.10
2019-01-05T00:04:07.090Z,3.63
2019-01-05T00:06:39.997Z,3.37
2019-01-05T00:09:25.874Z,4.07
2019-01-05T00:11:55.795Z,3.60
2019-01-05T00:14:34.783Z,4.17
2019-01-05T00:17:13.538Z,4.73
2019-01-05T00:19:44.722Z,3.53
2019-01-05T00:22:26.678Z,3.77
2019-01-05T00:25:02.362Z,4.07
2019-01-05T00:27:48.245Z,3.63
2019-01-05T00:30:34.322Z,3.43
2019-01-05T00:33:13.141Z,2.80
2019-01-05T00:35:58.063Z,2.73
2019-01-05T00:38:27.938Z,2.87
2019-01-05T00:41:06.838Z,2.83
2019-01-05T00:43:45.824Z,3.40
2019-01-05T00:46:30.777Z,2.37
2019-01-05T00:49:08.277Z,2.80
2019-01-05T00:51:39.208Z,2.77
2019-01-05T00:54:11.761Z,2.40
2019-01-05T00:56:53.654Z,2.47
2019-01-05T00:59:26.257Z,2.83
2019-01-05T01:02:12.124Z,2.40
2019-01-05T01:04:51.036Z,2.40
2019-01-05T01:07:32.757Z,2.13
2019-01-05T01:10:02.637Z,2.07
2019-01-05T01:12:44.395Z,2.17
2019-01-05T01:15:30.337Z,2.13
2019-01-05T01:18:06.225Z,2.40
2019-01-05T01:20:36.111Z,1.87
2019-01-05T01:23:11.731Z,1.70
2019-01-05T01:25:57.621Z,1.93
2019-01-05T01:28:33.359Z,1.90
2019-01-05T01:31:06.229Z,1.70
2019-01-05T01:33:44.877Z,1.87
2019-01-05T01:36:20.625Z,1.77
2019-01-05T01:38:53.731Z,1.53
2019-01-05T01:41:39.057Z,1.60
2019-01-05T01:44:09.176Z,1.77
2019-01-05T01:46:55.517Z,1.50
2019-01-05T01:49:41.553Z,1.60
2019-01-05T01:52:17.341Z,1.60
2019-01-05T01:54:52.957Z,1.80
2019-01-05T01:57:38.604Z,1.63
2019-01-05T02:00:27.018Z,1.83
2019-01-05T02:03:09.036Z,1.70
2019-01-05T02:05:44.342Z,1.77
2019-01-05T02:08:30.519Z,1.70
2019-01-05T02:11:16.362Z,1.80
2019-01-05T02:14:04.473Z,1.90
2019-01-05T02:16:37.430Z,2.00
2019-01-05T02:19:24.123Z,1.93
2019-01-05T02:22:23.874Z,1.60
2019-01-05T02:25:23.208Z,2.20
2019-01-05T02:28:24.538Z,1.97
2019-01-05T02:31:12.048Z,1.63
2019-01-05T02:34:10.426Z,2.20
2019-01-05T02:36:58.192Z,1.90
2019-01-05T02:40:10.951Z,1.90
2019-01-05T02:43:30.693Z,1.70
2019-01-05T02:46:42.578Z,1.73
2019-01-05T02:49:42.481Z,1.80
2019-01-05T02:52:45.241Z,1.70
2019-01-05T02:55:41.795Z,1.87
2019-01-05T02:58:20.520Z,1.77
2019-01-05T03:01:15.707Z,1.73
2019-01-05T03:04:09.323Z,1.70
2019-01-05T03:06:59.765Z,1.77
2019-01-05T03:09:42.418Z,1.83
2019-01-05T03:12:21.369Z,1.97
2019-01-05T03:15:00.461Z,1.60
2019-01-05T03:17:57.583Z,1.53
2019-01-05T03:20:53.852Z,1.87
2019-01-05T03:23:38.472Z,1.87
2019-01-05T03:26:50.247Z,1.90
2019-01-05T03:29:56.194Z,2.07
2019-01-05T03:33:00.701Z,1.70
2019-01-05T03:35:56.213Z,1.90
2019-01-05T03:38:41.314Z,1.60
2019-01-05T03:41:28.877Z,1.70
2019-01-05T03:44:34.969Z,2.03
2019-01-05T03:47:22.726Z,1.80
2019-01-05T03:50:15.294Z,1.87
2019-01-05T03:53:15.837Z,1.43
2019-01-05T03:56:13.756Z,2.00
2019-01-05T03:59:24.062Z,1.40
2019-01-05T04:02:35.734Z,1.60
2019-01-05T04:05:34.412Z,1.57
2019-01-05T04:08:29.642Z,1.60
2019-01-05T04:11:51.733Z,1.57
2019-01-05T04:14:33.658Z,1.57
2019-01-05T04:17:35.213Z,1.63
2019-01-05T04:20:22.927Z,1.50
2019-01-05T04:23:16.982Z,1.87
2019-01-05T04:26:25.534Z,1.50
2019-01-05T04:29:10.760Z,1.30
2019-01-05T04:32:00.942Z,1.27
2019-01-05T04:34:36.989Z,1.50
2019-01-05T04:37:24.435Z,1.40
2019-01-05T04:40:16.697Z,1.90
2019-01-05T04:43:16.627Z,1.10
2019-01-05T04:46:34.721Z,1.60
2019-01-05T04:49:25.485Z,1.80
2019-01-05T04:52:33.203Z,1.73
2019-01-05T04:55:22.606Z,2.17
2019-01-05T04:58:44.493Z,1.50
2019-01-05T05:01:51.452Z,1.50
2019-01-05T05:04:52.945Z,1.40
2019-01-05T05:07:34.328Z,1.80
2019-01-05T05:10:32.576Z,1.40
2019-01-05T05:13:26.129Z,1.50
2019-01-05T05:16:04.706Z,1.13
2019-01-05T05:19:19.273Z,1.33
2019-01-05T05:22:23.830Z,1.40
2019-01-05T05:25:29.599Z,1.00
2019-01-05T05:28:28.085Z,1.47
2019-01-05T05:31:42.498Z,1.40
2019-01-05T05:34:30.297Z,1.20
2019-01-05T05:37:35.763Z,1.60
2019-01-05T05:40:38.596Z,1.10
2019-01-05T05:43:35.029Z,1.00
2019-01-05T05:46:30.568Z,1.33
2019-01-05T05:49:24.252Z,1.00
2019-01-05T05:52:28.542Z,1.00
2019-01-05T05:55:41.872Z,1.20
2019-01-05T05:58:41.160Z,0.93
2019-01-05T06:01:39.242Z,1.00
2019-01-05T06:04:46.656Z,1.07
2019-01-05T06:07:46.424Z,1.00
2019-01-05T06:10:44.545Z,1.10
2019-01-05T06:13:51.654Z,0.90
2019-01-05T06:16:39.316Z,0.70
2019-01-05T06:19:29.534Z,1.10
2019-01-05T06:22:38.551Z,0.70
2019-01-05T06:25:31.577Z,0.70
2019-01-05T06:28:27.069Z,0.80
2019-01-05T06:31:17.690Z,0.80
2019-01-05T06:34:06.678Z,1.17
2019-01-05T06:37:05.208Z,0.90
2019-01-05T06:40:03.089Z,0.70
2019-01-05T06:42:41.777Z,1.10
2019-01-05T06:45:34.190Z,0.90
2019-01-05T06:48:38.240Z,0.80
2019-01-05T06:51:22.889Z,0.60
2019-01-05T06:54:15.494Z,1.10
2019-01-05T06:57:09.265Z,0.90
2019-01-05T07:00:07.180Z,1.00
2019-01-05T07:03:11.257Z,0.93
2019-01-05T07:06:07.039Z,0.70
2019-01-05T07:09:15.989Z,0.80
2019-01-05T07:12:22.005Z,0.80
2019-01-05T07:15:36.913Z,0.90
2019-01-05T07:19:00.653Z,1.05
2019-01-05T07:22:24.249Z,1.00
2019-01-05T07:25:11.195Z,1.10
2019-01-05T07:28:30.618Z,0.83
2019-01-05T07:31:24.465Z,1.10
2019-01-05T07:34:35.522Z,1.10
2019-01-05T07:37:17.513Z,1.10
2019-01-05T07:40:14.369Z,1.20
2019-01-05T07:42:59.052Z,1.37
2019-01-05T07:46:14.162Z,1.80
2019-01-05T07:49:24.677Z,1.50
2019-01-05T07:52:18.737Z,1.57
2019-01-05T07:55:33.316Z,1.30
2019-01-05T07:58:36.338Z,1.47
2019-01-05T08:01:51.089Z,1.55
2019-01-05T08:04:50.258Z,1.75
2019-01-05T08:07:40.613Z,1.90
2019-01-05T08:10:19.746Z,1.30
2019-01-05T08:13:40.964Z,1.10
2019-01-05T08:16:43.105Z,1.52
2019-01-05T08:19:38.413Z,1.30
2019-01-05T08:22:29.181Z,1.40
2019-01-05T08:25:39.564Z,1.40
2019-01-05T08:28:43.922Z,1.97
2019-01-05T08:31:37.606Z,1.37
2019-01-05T08:34:19.216Z,1.87
2019-01-05T08:37:36.477Z,2.05
2019-01-05T08:40:28.993Z,1.25
2019-01-05T08:43:27.435Z,1.47
2019-01-05T08:46:11.975Z,5.35
2019-01-05T08:49:13.267Z,4.70
2019-01-05T08:52:04.141Z,1.72
2019-01-05T08:55:17.377Z,1.37
2019-01-05T08:58:06.994Z,1.60
2019-01-05T09:00:48.946Z,1.40
2019-01-05T09:03:44.510Z,1.42
2019-01-05T09:07:05.110Z,1.52
2019-01-05T09:09:41.207Z,1.65
2019-01-05T09:12:43.189Z,1.62
2019-01-05T09:15:49.162Z,1.50
2019-01-05T09:19:09.410Z,1.40
2019-01-05T09:22:07.655Z,1.98
2019-01-05T09:25:02.938Z,2.10
2019-01-05T09:28:13.199Z,1.80
2019-01-05T09:30:48.924Z,1.87
2019-01-05T09:33:45.789Z,1.60
2019-01-05T09:36:37.658Z,1.75
2019-01-05T09:39:29.281Z,1.92
2019-01-05T09:42:17.089Z,1.97
2019-01-05T09:45:12.492Z,1.60
2019-01-05T09:48:12.409Z,2.03
2019-01-05T09:51:10.480Z,1.80
2019-01-05T09:54:22.208Z,1.70
2019-01-05T09:57:12.761Z,1.37
2019-01-05T09:59:48.588Z,1.60
2019-01-05T10:02:49.714Z,1.63
2019-01-05T10:05:34.353Z,1.43
2019-01-05T10:08:33.882Z,1.60
2019-01-05T10:11:44.489Z,1.70
2019-01-05T10:14:52.232Z,1.70
2019-01-05T10:17:46.032Z,1.30
2019-01-05T10:20:47.454Z,1.80
2019-01-05T10:23:42.846Z,1.67
2019-01-05T10:26:53.188Z,1.30
2019-01-05T10:29:43.955Z,1.45
2019-01-05T10:33:04.842Z,1.60
2019-01-05T10:36:14.609Z,1.60
2019-01-05T10:39:32.702Z,1.40
2019-01-05T10:42:33.933Z,1.92
2019-01-05T10:45:41.423Z,1.70
2019-01-05T10:48:58.150Z,1.57
2019-01-05T10:52:05.485Z,1.20
2019-01-05T10:54:56.521Z,1.50
2019-01-05T10:58:03.812Z,1.32
2019-01-05T11:01:11.262Z,1.20
2019-01-05T11:04:00.722Z,1.45
2019-01-05T11:07:20.441Z,1.40
2019-01-05T11:10:09.921Z,1.52
2019-01-05T11:13:24.545Z,1.20
2019-01-05T11:16:09.213Z,1.20
2019-01-05T11:19:05.437Z,1.10
2019-01-05T11:22:03.621Z,1.37
2019-01-05T11:24:58.434Z,1.40
2019-01-05T11:27:49.216Z,1.25
2019-01-05T11:30:50.706Z,1.00
2019-01-05T11:33:35.485Z,1.12
2019-01-05T11:36:45.904Z,0.90
2019-01-05T11:39:35.186Z,1.27
2019-01-05T11:42:43.937Z,0.95
2019-01-05T11:45:44.989Z,1.30
2019-01-05T11:48:56.369Z,1.60
2019-01-05T11:51:44.419Z,1.30
2019-01-05T11:54:44.432Z,1.10
2019-01-05T11:57:56.437Z,0.93
2019-01-05T12:01:13.734Z,1.00
2019-01-05T12:04:27.355Z,1.27
2019-01-05T12:07:22.784Z,1.20
2019-01-05T12:10:25.608Z,1.60
2019-01-05T12:13:32.739Z,1.40
2019-01-05T12:16:40.935Z,1.30
2019-01-05T12:19:35.243Z,1.40
2019-01-05T12:22:24.359Z,1.25
2019-01-05T12:25:28.423Z,1.30
2019-01-05T12:28:46.426Z,1.90
2019-01-05T12:31:50.540Z,1.63
2019-01-05T12:35:01.047Z,1.60
2019-01-05T12:37:56.774Z,1.73
2019-01-05T12:40:57.845Z,1.47
2019-01-05T12:43:39.706Z,1.90
2019-01-05T12:46:36.100Z,1.87
2019-01-05T12:49:46.596Z,1.40
2019-01-05T12:52:49.287Z,1.37
2019-01-05T12:55:43.563Z,1.37
2019-01-05T12:58:57.250Z,1.60
2019-01-05T13:01:30.500Z,1.65
2019-01-05T13:04:40.401Z,0.80
2019-01-05T13:07:34.320Z,1.40
2019-01-05T13:10:44.981Z,1.50
2019-01-05T13:13:40.038Z,1.20
2019-01-05T13:16:33.533Z,1.27
2019-01-05T13:19:28.661Z,1.30
2019-01-05T13:22:35.566Z,1.20
2019-01-05T13:25:37.093Z,1.32
2019-01-05T13:28:10.224Z,1.30
2019-01-05T13:31:02.384Z,1.20
2019-01-05T13:34:09.861Z,1.22
2019-01-05T13:36:50.949Z,1.00
2019-01-05T13:40:15.001Z,1.40
2019-01-05T13:43:14.771Z,1.20
2019-01-05T13:46:09.912Z,1.65
2019-01-05T13:49:00.537Z,1.70
2019-01-05T13:51:47.978Z,1.27
2019-01-05T13:54:17.844Z,1.30
2019-01-05T13:56:56.770Z,1.35
2019-01-05T13:59:26.849Z,1.60
2019-01-05T14:01:56.768Z,1.20
2019-01-05T14:04:43.944Z,1.30
2019-01-05T14:07:29.930Z,1.30
2019-01-05T14:10:02.779Z,1.57
2019-01-05T14:12:47.501Z,1.40
2019-01-05T14:15:20.236Z,1.05
2019-01-05T14:18:18.541Z,1.02
2019-01-05T14:20:48.473Z,1.10
2019-01-05T14:23:29.743Z,1.25
2019-01-05T14:25:59.596Z,1.45
2019-01-05T14:28:35.387Z,1.07
2019-01-05T14:31:17.273Z,1.30
2019-01-05T14:33:49.904Z,1.60
2019-01-05T14:36:25.557Z,1.07
2019-01-05T14:39:10.232Z,1.40
2019-01-05T14:41:51.899Z,1.60
2019-01-05T14:44:27.449Z,1.30
2019-01-05T14:47:06.029Z,1.30
2019-01-05T14:49:47.731Z,1.13
2019-01-05T14:52:23.765Z,1.57
2019-01-05T14:54:56.444Z,1.20
2019-01-05T14:57:42.576Z,1.10
2019-01-05T15:00:28.948Z,1.30
2019-01-05T15:03:07.807Z,1.20
2019-01-05T15:05:46.132Z,1.37
2019-01-05T15:08:15.990Z,1.20
2019-01-05T15:11:02.063Z,1.50
2019-01-05T15:13:34.890Z,1.35
2019-01-05T15:16:04.770Z,1.17
2019-01-05T15:18:40.659Z,1.17
2019-01-05T15:21:16.591Z,1.20
2019-01-05T15:23:50.933Z,1.25
2019-01-05T15:26:20.308Z,1.00
2019-01-05T15:28:52.963Z,1.42
2019-01-05T15:31:34.911Z,1.27
2019-01-05T15:34:07.387Z,1.30
2019-01-05T15:36:53.700Z,1.17
2019-01-05T15:39:35.695Z,1.40
2019-01-05T15:42:23.646Z,1.40
2019-01-05T15:45:08.427Z,1.10
2019-01-05T15:47:47.282Z,1.30
2019-01-05T15:50:17.221Z,1.00
2019-01-05T15:53:04.964Z,1.13
2019-01-05T15:55:38.127Z,1.22
2019-01-05T15:58:14.135Z,1.42
2019-01-05T16:00:44.054Z,1.30
2019-01-05T16:03:31.595Z,1.30
2019-01-05T16:06:01.508Z,0.97
2019-01-05T16:08:40.340Z,1.40
2019-01-05T16:11:26.308Z,1.67
2019-01-05T16:14:12.498Z,1.40
2019-01-05T16:16:45.087Z,1.20
2019-01-05T16:19:31.400Z,1.77
2019-01-05T16:22:01.269Z,2.23
2019-01-05T16:24:36.857Z,2.30
2019-01-05T16:27:09.639Z,2.20
2019-01-05T16:29:51.611Z,2.50
2019-01-05T16:32:21.549Z,1.90
2019-01-05T16:35:07.793Z,2.60
2019-01-05T16:37:53.918Z,2.23
2019-01-05T16:40:26.713Z,2.23
2019-01-05T16:42:56.614Z,2.33
2019-01-05T16:45:38.575Z,3.27
2019-01-05T16:48:11.586Z,2.90
2019-01-05T16:50:56.650Z,3.60
2019-01-05T16:53:35.382Z,2.23
2019-01-05T16:56:08.377Z,2.53
2019-01-05T16:58:54.782Z,2.98
2019-01-05T17:01:36.633Z,2.80
2019-01-05T17:04:21.528Z,2.30
2019-01-05T17:06:51.501Z,2.20
2019-01-05T17:09:21.476Z,2.60
2019-01-05T17:11:51.445Z,1.80
2019-01-05T17:14:37.436Z,1.97
2019-01-05T17:17:13.085Z,2.67
2019-01-05T17:19:43.012Z,2.37
2019-01-05T17:22:28.965Z,2.53
2019-01-05T17:25:07.886Z,1.70
2019-01-05T17:27:37.871Z,2.80
2019-01-05T17:30:10.921Z,2.70
2019-01-05T17:32:43.578Z,3.10
2019-01-05T17:35:22.272Z,4.33
2019-01-05T17:37:52.125Z,2.70
2019-01-05T17:40:30.693Z,2.65
2019-01-05T17:43:16.621Z,2.87
2019-01-05T17:45:58.661Z,2.60
2019-01-05T17:48:28.690Z,2.30
2019-01-05T17:51:04.520Z,2.40
2019-01-05T17:53:50.440Z,2.47
2019-01-05T17:56:26.450Z,3.15
2019-01-05T17:58:56.341Z,2.13
2019-01-05T18:01:26.303Z,2.27
2019-01-05T18:04:02.049Z,2.10
2019-01-05T18:06:38.082Z,2.50
2019-01-05T18:09:10.562Z,2.80
2019-01-05T18:11:46.538Z,2.03
2019-01-05T18:14:22.481Z,2.40
2019-01-05T18:16:58.425Z,2.73
2019-01-05T18:19:31.232Z,2.87
2019-01-05T18:22:06.908Z,3.50
2019-01-05T18:24:36.845Z,2.95
2019-01-05T18:27:23.092Z,2.77
2019-01-05T18:30:11.042Z,3.55
2019-01-05T18:32:43.664Z,2.30
2019-01-05T18:35:14.339Z,4.20
2019-01-05T18:37:44.308Z,4.30
2019-01-05T18:40:32.199Z,3.92
2019-01-05T18:43:21.227Z,3.50
2019-01-05T18:46:06.475Z,2.77
2019-01-05T18:48:53.025Z,2.93
2019-01-05T18:51:41.179Z,3.50
2019-01-05T18:54:23.153Z,3.23
2019-01-05T18:57:05.338Z,3.30
2019-01-05T18:59:51.277Z,3.80
2019-01-05T19:02:37.543Z,2.87
2019-01-05T19:05:26.821Z,2.90
2019-01-05T19:07:59.435Z,2.83
2019-01-05T19:10:44.128Z,2.97
2019-01-05T19:13:16.668Z,3.27
2019-01-05T19:15:52.681Z,3.00
2019-01-05T19:18:39.116Z,3.08
2019-01-05T19:21:14.928Z,2.80
2019-01-05T19:23:44.804Z,3.60
2019-01-05T19:26:30.728Z,3.10
2019-01-05T19:29:15.829Z,2.63
2019-01-05T19:31:45.702Z,4.42
2019-01-05T19:34:18.311Z,3.80
2019-01-05T19:36:49.962Z,2.90
2019-01-05T19:39:37.776Z,2.70
2019-01-05T19:42:10.781Z,2.70
2019-01-05T19:44:52.807Z,2.47
2019-01-05T19:47:38.695Z,3.17
2019-01-05T19:50:24.893Z,3.15
2019-01-05T19:52:57.710Z,2.50
2019-01-05T19:55:42.659Z,2.10
2019-01-05T19:58:12.543Z,2.00
2019-01-05T20:00:51.151Z,2.20
2019-01-05T20:03:38.243Z,2.67
2019-01-05T20:06:19.944Z,4.43
2019-01-05T20:08:49.835Z,6.30
2019-01-05T20:11:28.440Z,3.43
2019-01-05T20:13:58.296Z,2.60
2019-01-05T20:16:46.122Z,2.60
2019-01-05T20:19:38.020Z,2.87
2019-01-05T20:22:07.911Z,3.92
2019-01-05T20:24:40.464Z,3.25
2019-01-05T20:27:26.417Z,3.02
2019-01-05T20:30:02.012Z,3.58
2019-01-05T20:32:50.070Z,2.63
2019-01-05T20:35:19.963Z,2.05
2019-01-05T20:37:52.820Z,1.43
2019-01-05T20:40:34.715Z,2.60
2019-01-05T20:43:16.696Z,1.90
2019-01-05T20:46:02.635Z,1.53
2019-01-05T20:48:47.540Z,2.30
2019-01-05T20:51:20.123Z,2.40
2019-01-05T20:53:52.725Z,2.27
2019-01-05T20:56:38.634Z,2.55
2019-01-05T20:59:08.533Z,3.23
2019-01-05T21:01:54.705Z,5.03
2019-01-05T21:04:24.565Z,6.73
2019-01-05T21:06:54.477Z,6.87
2019-01-05T21:09:24.410Z,6.20
2019-01-05T21:11:54.294Z,5.75
2019-01-05T21:14:42.312Z,5.30
2019-01-05T21:17:18.033Z,4.37
2019-01-05T21:19:53.694Z,4.30
2019-01-05T21:22:26.534Z,3.67
2019-01-05T21:24:59.384Z,3.98
2019-01-05T21:27:35.310Z,3.62
2019-01-05T21:30:15.847Z,3.22
2019-01-05T21:32:48.842Z,3.55
2019-01-05T21:35:18.703Z,3.45
2019-01-05T21:38:02.002Z,3.37
2019-01-05T21:40:37.948Z,2.70
2019-01-05T21:43:23.817Z,2.63
2019-01-05T21:45:56.590Z,2.40
2019-01-05T21:48:26.486Z,2.17
2019-01-05T21:51:12.364Z,2.37
2019-01-05T21:53:54.286Z,2.10
2019-01-05T21:56:30.173Z,2.12
2019-01-05T21:59:18.141Z,1.77
2019-01-05T22:01:53.714Z,1.43
2019-01-05T22:04:23.635Z,1.85
2019-01-05T22:06:59.270Z,1.93
2019-01-05T22:09:31.865Z,2.00
2019-01-05T22:12:13.809Z,2.00
2019-01-05T22:14:59.718Z,1.67
2019-01-05T22:17:32.554Z,2.20
2019-01-05T22:20:02.426Z,1.90
2019-01-05T22:22:48.422Z,2.45
2019-01-05T22:25:24.322Z,2.40
2019-01-05T22:27:54.188Z,1.60
2019-01-05T22:30:32.981Z,1.70
2019-01-05T22:33:17.685Z,1.85
2019-01-05T22:35:56.398Z,1.87
2019-01-05T22:38:35.225Z,1.27
2019-01-05T22:41:07.786Z,2.00
2019-01-05T22:43:40.625Z,1.60
2019-01-05T22:46:10.545Z,1.80
2019-01-05T22:48:49.117Z,1.65
2019-01-05T22:51:28.050Z,1.57
2019-01-05T22:54:16.042Z,1.00
2019-01-05T22:57:01.845Z,1.10
2019-01-05T22:59:34.673Z,1.25
2019-01-05T23:02:20.805Z,1.10
2019-01-05T23:05:06.429Z,1.10
2019-01-05T23:07:52.570Z,1.00
2019-01-05T23:10:22.450Z,0.90
2019-01-05T23:13:04.064Z,0.93
2019-01-05T23:15:33.947Z,0.90
2019-01-05T23:18:09.653Z,1.10
2019-01-05T23:20:48.450Z,0.90
2019-01-05T23:23:27.004Z,1.17
2019-01-05T23:26:05.706Z,0.90
2019-01-05T23:28:51.802Z,1.25
2019-01-05T23:31:21.678Z,1.10
2019-01-05T23:34:10.669Z,0.88
2019-01-05T23:36:49.605Z,0.72
2019-01-05T23:39:19.478Z,1.20
2019-01-05T23:42:07.188Z,1.30
2019-01-05T23:44:42.694Z,1.30
2019-01-05T23:47:12.568Z,1.30
2019-01-05T23:49:42.450Z,1.27
2019-01-05T23:52:28.369Z,1.30
2019-01-05T23:55:07.278Z,1.20
2019-01-05T23:57:39.803Z,1.37
